This is the latest recevied weather packets stored in our database for station/object YC0TBU-11. If no packets are shown the sender has not sent any weather packets the latest 1 day(s).
| Time | Temp. | Humidity | Pressure | Rain* | Wind** | Luminosity | Snow |
|---|---|---|---|---|---|---|---|
| 1778060591 | 41.11° C | 36% | 1008.1 hPa | - | - | - | - |
| 1778058791 | 41.67° C | 35% | 1007.8 hPa | - | - | - | - |
| 1778056991 | 45° C | 31% | 1007.6 hPa | - | - | - | - |
| 1778055191 | 45° C | 30% | 1007.7 hPa | - | - | - | - |
| 1778051591 | 42.22° C | 31% | 1007.9 hPa | - | - | - | - |
| 1778049791 | 42.22° C | 32% | 1008.5 hPa | - | - | - | - |
| 1778047991 | 42.22° C | 33% | 1009 hPa | - | - | - | - |
| 1778046191 | 40.56° C | 36% | 1009.6 hPa | - | - | - | - |
| 1778044391 | 40° C | 36% | 1010.1 hPa | - | - | - | - |
| 1778042591 | 38.33° C | 39% | 1010.4 hPa | - | - | - | - |
| 1778040791 | 38.33° C | 39% | 1010.9 hPa | - | - | - | - |
| 1778038991 | 38.33° C | 39% | 1011.4 hPa | - | - | - | - |
| 1778037191 | 37.78° C | 40% | 1011.6 hPa | - | - | - | - |
| 1778035435 | 36.67° C | 42% | 1011.7 hPa | - | - | - | - |
| 1778033596 | 35.56° C | 45% | 1012 hPa | - | - | - | - |
| 1778031791 | 35° C | 48% | 1012 hPa | - | - | - | - |
| 1778029991 | 34.44° C | 50% | 1012.1 hPa | - | - | - | - |
| 1778026395 | 34.44° C | 49% | 1011.9 hPa | - | - | - | - |
| 1778024592 | 35.56° C | 47% | 1011.7 hPa | - | - | - | - |
| 1778020991 | 35° C | 48% | 1011.1 hPa | - | - | - | - |
| 1778019191 | 35° C | 48% | 1010.9 hPa | - | - | - | - |
| 1778011991 | 35.56° C | 48% | 1010.9 hPa | - | - | - | - |
| 1778002923 | 34.44° C | 51% | 1012.4 hPa | - | - | - | - |
| 1777997523 | 34.44° C | 50% | 1013 hPa | - | - | - | - |
| 1777992128 | 35° C | 49% | 1013 hPa | - | - | - | - |
* Rain since midnight (hover to see other rain measurements)
** Current wind speed in m/s (hover to see current wind gust speed)